Time;durP1;ratioP1;P1;durP2;ratioP2;P2;SDS_P1;SDS_P2;PMS_P1;PMS_P2;Temp;Humidity;BMP_temperature;BMP_pressure;BME280_temperature;BME280_humidity;BME280_pressure;Samples;Min_cycle;Max_cycle;Signal;HPM_P1;HPM_P2
2022/12/11 00:01:20;;;;;;;20.10;15.30;;;;;;;-2.77;100.00;95434.69;5034212;28;20474;-74
2022/12/11 00:03:47;;;;;;;19.70;13.43;;;;;;;-2.78;100.00;95409.88;5050304;28;20513;-74
2022/12/11 00:06:17;;;;;;;21.63;13.47;;;;;;;-2.83;100.00;95415.03;5034501;28;20476;-74
2022/12/11 00:08:45;;;;;;;21.20;14.70;;;;;;;-2.89;100.00;95436.00;5034282;28;20502;-74
2022/12/11 00:11:15;;;;;;;21.30;13.13;;;;;;;-2.82;100.00;95437.28;5050583;28;20468;-74
2022/12/11 00:13:42;;;;;;;19.40;13.57;;;;;;;-2.73;100.00;95434.94;5050517;28;20448;-74
2022/12/11 00:16:09;;;;;;;18.67;14.87;;;;;;;-2.90;100.00;95432.66;5050646;28;20443;-74
2022/12/11 00:18:36;;;;;;;19.30;14.33;;;;;;;-2.95;100.00;95411.97;5034093;28;20437;-74
2022/12/11 00:21:04;;;;;;;19.70;13.33;;;;;;;-2.97;100.00;95417.41;5051142;28;20469;-74
2022/12/11 00:23:33;;;;;;;20.33;14.97;;;;;;;-2.87;100.00;95444.28;5050354;28;20535;-74
2022/12/11 00:26:05;;;;;;;20.30;13.43;;;;;;;-2.85;100.00;95437.81;5034102;28;20546;-74
2022/12/11 00:28:32;;;;;;;19.27;13.53;;;;;;;-3.15;100.00;95414.63;5049953;28;20475;-76
2022/12/11 00:31:03;;;;;;;20.30;13.83;;;;;;;-3.08;100.00;95428.03;5014284;28;20469;-76
2022/12/11 00:33:29;;;;;;;17.23;11.93;;;;;;;-3.22;100.00;95409.69;5032441;28;20424;-76
2022/12/11 00:35:56;;;;;;;20.40;14.90;;;;;;;-3.30;100.00;95402.50;5035513;28;20537;-76
2022/12/11 00:38:23;;;;;;;23.97;15.57;;;;;;;-3.14;100.00;95413.56;5028154;28;20448;-76
2022/12/11 00:40:49;;;;;;;20.27;11.90;;;;;;;-3.21;100.00;95421.59;5030228;28;21023;-76
2022/12/11 00:43:16;;;;;;;25.07;14.40;;;;;;;-3.02;100.00;95448.44;5018358;28;20959;-76
2022/12/11 00:45:45;;;;;;;16.83;13.40;;;;;;;-3.15;100.00;95443.81;5038999;28;20438;-76
2022/12/11 00:48:12;;;;;;;24.70;15.70;;;;;;;-3.28;100.00;95415.94;5030235;28;20837;-76
2022/12/11 00:50:40;;;;;;;25.40;16.40;;;;;;;-3.26;100.00;95442.28;5014109;28;20458;-76
2022/12/11 00:53:07;;;;;;;22.73;14.50;;;;;;;-3.12;100.00;95456.22;5029927;28;20448;-76
2022/12/11 00:55:39;;;;;;;23.27;16.30;;;;;;;-3.10;100.00;95458.53;5030200;28;20914;-76
2022/12/11 00:58:06;;;;;;;19.83;15.40;;;;;;;-3.15;100.00;95464.50;5029896;28;20442;-77
2022/12/11 01:00:33;;;;;;;19.70;13.10;;;;;;;-3.19;100.00;95453.13;5029820;28;20533;-77
2022/12/11 01:02:59;;;;;;;23.73;14.90;;;;;;;-3.21;100.00;95446.66;5013531;28;20477;-77
2022/12/11 01:05:26;;;;;;;22.80;15.37;;;;;;;-3.48;100.00;95423.69;5031557;28;20432;-77
2022/12/11 01:07:53;;;;;;;19.97;13.90;;;;;;;-3.20;100.00;95455.97;5015935;28;20463;-77
2022/12/11 01:10:22;;;;;;;17.83;13.37;;;;;;;-3.47;100.00;95428.63;5031774;28;20445;-77
2022/12/11 01:12:54;;;;;;;22.63;14.90;;;;;;;-3.16;100.00;95478.47;5015050;28;20466;-77
2022/12/11 01:15:25;;;;;;;25.70;16.00;;;;;;;-3.14;100.00;95481.56;5029223;28;20438;-77
2022/12/11 01:17:52;;;;;;;19.33;14.60;;;;;;;-3.11;100.00;95478.44;5030814;28;20956;-77
2022/12/11 01:20:21;;;;;;;19.70;14.73;;;;;;;-3.15;100.00;95479.22;5014978;28;20429;-77
2022/12/11 01:22:50;;;;;;;18.33;14.20;;;;;;;-3.29;100.00;95451.34;5030997;28;20473;-77
2022/12/11 01:25:17;;;;;;;20.77;14.97;;;;;;;-3.59;100.00;95418.53;5035329;28;20507;-76
2022/12/11 01:27:43;;;;;;;22.40;12.13;;;;;;;-3.36;100.00;95452.63;5029587;28;20447;-76
2022/12/11 01:30:12;;;;;;;20.13;12.93;;;;;;;-3.12;100.00;95484.66;5013116;28;20839;-76
2022/12/11 01:32:38;;;;;;;19.60;13.67;;;;;;;-3.24;100.00;95480.78;5029666;28;20548;-77
2022/12/11 01:35:06;;;;;;;17.00;12.53;;;;;;;-3.31;100.00;95481.06;5029160;28;20486;-77
2022/12/11 01:37:33;;;;;;;21.73;13.93;;;;;;;-3.64;100.00;95435.81;5012941;28;20437;-76
2022/12/11 01:40:00;;;;;;;23.07;15.30;;;;;;;-3.52;100.00;95464.75;5013095;28;20529;-76
2022/12/11 01:42:28;;;;;;;17.90;12.10;;;;;;;-3.52;100.00;95446.69;5029603;28;20484;-76
2022/12/11 01:45:21;;;;;;;19.40;14.10;;;;;;;-3.77;100.00;95405.34;5040575;28;20499;-76
2022/12/11 01:48:15;;;;;;;18.03;13.37;;;;;;;-3.34;100.00;95479.75;5002037;28;21026;-76
2022/12/11 01:50:53;;;;;;;21.20;13.50;;;;;;;-3.93;100.00;95381.34;5029094;28;20490;-76
2022/12/11 01:53:26;;;;;;;20.00;13.00;;;;;;;-3.30;100.00;95454.19;5013199;28;20488;-76
2022/12/11 01:55:55;;;;;;;21.30;11.67;;;;;;;-2.90;100.00;95478.44;5029061;28;20438;-76
2022/12/11 01:58:25;;;;;;;19.47;12.90;;;;;;;-3.13;100.00;95462.41;5029132;28;20438;-76
2022/12/11 02:00:52;;;;;;;18.13;13.17;;;;;;;-3.46;100.00;95450.06;5032712;28;20478;-76
2022/12/11 02:03:20;;;;;;;18.23;12.23;;;;;;;-3.50;100.00;95449.00;5051427;28;20862;-76
2022/12/11 02:05:47;;;;;;;18.93;11.90;;;;;;;-3.37;100.00;95484.66;5048896;28;20447;-76
2022/12/11 02:08:14;;;;;;;20.87;14.03;;;;;;;-3.36;100.00;95458.56;5050437;28;20425;-76
2022/12/11 02:11:04;;;;;;;18.43;12.73;;;;;;;-3.02;100.00;95460.59;5029689;28;20458;-76
2022/12/11 02:13:48;;;;;;;18.10;12.10;;;;;;;-3.35;100.00;95400.69;5029382;28;20807;-76
2022/12/11 02:16:41;;;;;;;17.70;11.87;;;;;;;-3.23;100.00;95438.41;5030367;28;20483;-76
2022/12/11 02:19:27;;;;;;;18.63;12.43;;;;;;;-3.17;100.00;95445.91;5012730;28;20453;-76
2022/12/11 02:21:56;;;;;;;16.67;11.93;;;;;;;-3.09;100.00;95471.19;5012709;28;20851;-76
2022/12/11 02:24:35;;;;;;;15.93;11.93;;;;;;;-3.15;100.00;95472.25;5012620;28;20430;-76
2022/12/11 02:27:37;;;;;;;15.60;12.47;;;;;;;-3.20;100.00;95482.59;5020513;28;20433;-76
2022/12/11 02:30:11;;;;;;;20.43;14.43;;;;;;;-3.27;100.00;95480.25;5015076;28;20808;-75
2022/12/11 02:32:55;;;;;;;17.30;12.80;;;;;;;-3.41;100.00;95447.47;5034186;28;20495;-76
2022/12/11 02:35:29;;;;;;;22.07;13.70;;;;;;;-3.51;100.00;95439.72;5032670;28;20437;-75
2022/12/11 02:38:02;;;;;;;18.33;13.93;;;;;;;-3.71;100.00;95418.03;5032512;28;20484;-76
2022/12/11 02:40:34;;;;;;;16.63;12.43;;;;;;;-3.36;100.00;95462.94;5032741;28;20442;-76
2022/12/11 02:43:03;;;;;;;21.07;13.50;;;;;;;-3.41;100.00;95465.53;5034714;28;20473;-76
2022/12/11 02:45:35;;;;;;;20.73;12.83;;;;;;;-3.33;100.00;95470.19;5044146;28;20852;-76
2022/12/11 02:48:04;;;;;;;18.87;13.73;;;;;;;-3.43;100.00;95455.47;5046141;28;20468;-76
2022/12/11 02:50:35;;;;;;;16.70;11.30;;;;;;;-3.77;100.00;95410.53;5015976;28;20434;-76
2022/12/11 02:53:03;;;;;;;18.37;12.27;;;;;;;-3.58;100.00;95447.72;5034220;28;20464;-75
2022/12/11 02:55:32;;;;;;;12.90;11.23;;;;;;;-3.22;100.00;95474.31;5033370;28;20455;-76
2022/12/11 02:58:08;;;;;;;16.43;11.53;;;;;;;-3.19;100.00;95475.63;5032179;28;20445;-76
2022/12/11 03:00:35;;;;;;;20.20;12.67;;;;;;;-3.63;100.00;95417.50;5032581;28;20985;-75
2022/12/11 03:03:02;;;;;;;16.87;12.50;;;;;;;-3.53;100.00;95452.88;5032166;28;20938;-75
2022/12/11 03:05:29;;;;;;;23.90;13.80;;;;;;;-3.51;100.00;95473.28;5032095;28;20434;-76
2022/12/11 03:07:56;;;;;;;18.43;11.90;;;;;;;-4.09;100.00;95423.66;5033475;28;20513;-75
2022/12/11 03:10:22;;;;;;;16.73;12.77;;;;;;;-3.78;100.00;95465.78;5048617;28;20457;-75
2022/12/11 03:12:52;;;;;;;18.03;12.10;;;;;;;-4.05;100.00;95435.00;5031747;28;20572;-76
2022/12/11 03:15:29;;;;;;;18.07;11.80;;;;;;;-4.01;100.00;95460.03;5016310;28;20430;-76
2022/12/11 03:18:12;;;;;;;22.83;13.60;;;;;;;-3.99;100.00;95472.72;5052137;28;20432;-75
2022/12/11 03:20:46;;;;;;;18.67;13.07;;;;;;;-4.16;100.00;95458.22;5052986;28;20504;-76
2022/12/11 03:23:31;;;;;;;18.63;12.73;;;;;;;-4.11;100.00;95469.59;5053085;28;20454;-76
2022/12/11 03:26:04;;;;;;;17.93;13.90;;;;;;;-4.11;100.00;95465.22;5045539;28;20509;-76
2022/12/11 03:28:43;;;;;;;22.50;14.30;;;;;;;-4.21;100.00;95458.22;5015504;28;20457;-76
2022/12/11 03:31:22;;;;;;;21.27;15.43;;;;;;;-4.33;100.00;95443.97;5031991;28;20470;-75
2022/12/11 03:33:56;;;;;;;21.80;13.83;;;;;;;-4.22;100.00;95469.56;5036869;28;20460;-75
2022/12/11 03:36:35;;;;;;;17.07;12.73;;;;;;;-4.27;100.00;95472.13;5013905;28;20473;-75
2022/12/11 03:39:08;;;;;;;20.73;13.27;;;;;;;-4.71;100.00;95412.38;5031047;28;20480;-76
2022/12/11 03:41:37;;;;;;;20.30;14.53;;;;;;;-4.60;100.00;95418.38;5049849;28;20444;-77
2022/12/11 03:44:05;;;;;;;21.90;13.60;;;;;;;-4.72;100.00;95431.47;5051233;28;20438;-76
2022/12/11 03:46:37;;;;;;;24.93;13.47;;;;;;;-4.42;100.00;95479.78;5017430;28;20784;-76
2022/12/11 03:49:16;;;;;;;23.20;14.83;;;;;;;-4.50;100.00;95455.28;5031283;28;20444;-76
2022/12/11 03:51:47;;;;;;;24.77;14.60;;;;;;;-4.48;100.00;95476.44;5031106;28;21023;-76
2022/12/11 03:54:15;;;;;;;18.87;13.67;;;;;;;-4.57;100.00;95470.19;5014888;28;20441;-76
2022/12/11 03:56:44;;;;;;;21.80;14.20;;;;;;;-4.52;100.00;95479.78;5031570;28;20799;-76
2022/12/11 03:59:12;;;;;;;23.10;14.30;;;;;;;-4.73;100.00;95460.06;5014775;28;20457;-76
2022/12/11 04:01:38;;;;;;;22.77;13.53;;;;;;;-4.42;100.00;95473.88;5040459;28;20491;-76
2022/12/11 04:04:05;;;;;;;21.07;14.23;;;;;;;-4.41;100.00;95452.97;5050915;28;20912;-76
2022/12/11 04:06:32;;;;;;;19.33;14.13;;;;;;;-4.27;100.00;95474.72;5050911;28;20425;-76
2022/12/11 04:08:59;;;;;;;18.70;13.20;;;;;;;-4.37;100.00;95484.22;5017570;28;20430;-76
2022/12/11 04:11:34;;;;;;;24.47;14.10;;;;;;;-4.38;100.00;95473.13;5032181;28;20597;-76
2022/12/11 04:16:54;;;;;;;20.53;13.97;;;;;;;-4.51;100.00;95476.94;5051719;28;20947;-76
2022/12/11 04:24:55;;;;;;;18.70;13.13;;;;;;;-4.64;100.00;95458.56;5030255;28;20827;-76
2022/12/11 04:30:13;;;;;;;18.90;13.70;;;;;;;-4.44;100.00;95476.69;5034382;28;20425;-76
2022/12/11 04:32:40;;;;;;;20.87;12.87;;;;;;;-4.43;100.00;95480.06;5040016;28;20468;-76
2022/12/11 04:35:08;;;;;;;18.00;10.27;;;;;;;-4.42;100.00;95476.44;5030100;28;20536;-76
2022/12/11 04:37:36;;;;;;;16.77;11.50;;;;;;;-4.37;100.00;95472.09;5031516;28;20426;-76
2022/12/11 04:40:04;;;;;;;16.00;11.30;;;;;;;-4.29;100.00;95463.84;5034451;28;20490;-76
2022/12/11 04:42:31;;;;;;;17.60;13.07;;;;;;;-4.11;100.00;95460.03;5050025;28;20440;-76
2022/12/11 04:44:57;;;;;;;16.47;12.00;;;;;;;-3.87;100.00;95479.22;5028705;28;20444;-76
2022/12/11 04:47:24;;;;;;;18.13;11.83;;;;;;;-3.94;100.00;95454.66;5041978;28;20917;-76
2022/12/11 04:49:51;;;;;;;19.63;12.93;;;;;;;-3.93;100.00;95466.53;5033386;28;20440;-76
2022/12/11 04:52:17;;;;;;;23.67;12.50;;;;;;;-4.01;100.00;95459.28;5049807;28;20465;-76
2022/12/11 04:54:44;;;;;;;18.40;13.47;;;;;;;-4.11;100.00;95446.38;5014901;28;20975;-76
2022/12/11 04:57:11;;;;;;;15.10;11.47;;;;;;;-4.28;100.00;95425.94;5030030;28;20442;-76
2022/12/11 04:59:37;;;;;;;15.73;11.30;;;;;;;-4.09;100.00;95462.38;5013537;28;20533;-76
2022/12/11 05:02:04;;;;;;;16.60;11.60;;;;;;;-4.33;100.00;95425.94;5029853;28;20449;-76
2022/12/11 05:04:33;;;;;;;16.80;11.83;;;;;;;-4.36;100.00;95429.78;5048322;28;20452;-76
2022/12/11 05:07:00;;;;;;;15.87;11.27;;;;;;;-4.17;100.00;95464.41;5049798;28;20524;-76
2022/12/11 05:09:27;;;;;;;15.40;11.30;;;;;;;-4.49;100.00;95414.78;5051123;28;20439;-76
2022/12/11 05:11:54;;;;;;;20.70;13.33;;;;;;;-4.25;100.00;95453.81;5049747;28;20469;-76
2022/12/11 05:14:20;;;;;;;16.80;11.57;;;;;;;-4.29;100.00;95435.47;5030672;28;20427;-76
2022/12/11 05:16:47;;;;;;;16.20;11.40;;;;;;;-4.24;100.00;95422.59;5029626;28;20462;-76
2022/12/11 05:19:14;;;;;;;15.03;10.30;;;;;;;-4.10;100.00;95415.16;5030483;28;20418;-76
2022/12/11 05:21:40;;;;;;;19.37;12.00;;;;;;;-4.18;100.00;95407.91;5029715;28;20466;-76
2022/12/11 05:24:07;;;;;;;17.40;12.20;;;;;;;-3.92;100.00;95450.78;5029591;28;20442;-76
2022/12/11 05:26:34;;;;;;;13.37;10.40;;;;;;;-4.06;100.00;95443.78;5026503;28;20440;-76
2022/12/11 05:29:01;;;;;;;15.60;11.97;;;;;;;-4.09;100.00;95426.25;5050834;28;20925;-76
2022/12/11 05:31:27;;;;;;;20.00;13.30;;;;;;;-4.12;100.00;95416.44;5035928;28;20553;-76
2022/12/11 05:33:54;;;;;;;17.27;12.00;;;;;;;-4.25;100.00;95404.81;5029764;28;20473;-76
2022/12/11 05:36:23;;;;;;;19.30;12.93;;;;;;;-4.12;100.00;95417.22;5029477;28;20520;-76
2022/12/11 05:38:51;;;;;;;16.77;11.43;;;;;;;-3.98;100.00;95443.31;5013133;28;20448;-75
2022/12/11 05:41:22;;;;;;;17.80;13.20;;;;;;;-4.12;100.00;95442.25;5030692;28;20978;-76
2022/12/11 05:43:49;;;;;;;16.40;12.53;;;;;;;-4.18;100.00;95441.44;5035000;28;20444;-76
2022/12/11 05:46:19;;;;;;;18.57;13.13;;;;;;;-4.11;100.00;95439.41;5019930;28;20459;-76
2022/12/11 05:48:48;;;;;;;18.20;12.97;;;;;;;-4.03;100.00;95438.13;5049605;28;20802;-76
2022/12/11 05:51:16;;;;;;;19.20;13.67;;;;;;;-4.21;100.00;95441.94;5049024;28;20493;-76
2022/12/11 05:53:44;;;;;;;23.70;15.77;;;;;;;-4.41;100.00;95421.25;5040579;28;20984;-76
2022/12/11 05:56:14;;;;;;;19.83;12.70;;;;;;;-4.31;100.00;95442.69;5030611;28;20422;-76
2022/12/11 05:58:42;;;;;;;17.37;11.20;;;;;;;-4.28;100.00;95434.44;5030982;28;20425;-76
2022/12/11 06:01:12;;;;;;;19.60;13.53;;;;;;;-4.36;100.00;95439.34;5030312;28;20461;-76
2022/12/11 06:03:38;;;;;;;18.93;12.77;;;;;;;-4.44;100.00;95435.44;5013644;28;21034;-76
2022/12/11 06:06:06;;;;;;;18.73;11.60;;;;;;;-4.56;100.00;95414.25;5033531;28;20430;-76
2022/12/11 06:08:33;;;;;;;20.73;13.57;;;;;;;-4.47;100.00;95441.88;5045423;28;20429;-76
2022/12/11 06:11:00;;;;;;;21.50;11.70;;;;;;;-4.33;100.00;95442.19;5054545;28;20458;-76
2022/12/11 06:13:27;;;;;;;19.47;12.13;;;;;;;-4.28;100.00;95418.19;5040715;28;21088;-76
2022/12/11 06:15:54;;;;;;;19.70;13.27;;;;;;;-4.00;100.00;95435.03;5030418;28;20430;-76
2022/12/11 06:18:21;;;;;;;19.90;13.30;;;;;;;-4.51;100.00;95355.75;5026287;28;20438;-76
2022/12/11 06:20:47;;;;;;;20.00;13.17;;;;;;;-4.11;100.00;95405.09;5032753;28;20466;-76
2022/12/11 06:23:14;;;;;;;19.33;12.33;;;;;;;-4.35;100.00;95368.66;5033169;28;20431;-76
2022/12/11 06:25:40;;;;;;;25.67;14.47;;;;;;;-4.22;100.00;95384.41;5032963;28;20956;-74
2022/12/11 06:28:07;;;;;;;19.10;11.90;;;;;;;-4.25;100.00;95379.78;5032982;28;20446;-74
2022/12/11 06:30:34;;;;;;;21.30;13.37;;;;;;;-4.10;100.00;95404.81;5034175;28;20561;-74
2022/12/11 06:33:05;;;;;;;20.53;14.53;;;;;;;-4.01;100.00;95423.13;5046609;28;20489;-74
2022/12/11 06:35:32;;;;;;;17.50;12.87;;;;;;;-4.02;100.00;95432.69;5028813;28;20438;-74
2022/12/11 06:38:07;;;;;;;21.00;14.27;;;;;;;-4.03;100.00;95427.78;5023069;28;21072;-74
2022/12/11 06:40:34;;;;;;;18.67;12.13;;;;;;;-3.98;100.00;95412.31;5052520;28;20564;-74
2022/12/11 06:43:00;;;;;;;16.83;12.77;;;;;;;-3.96;100.00;95416.19;5052782;28;20425;-76
2022/12/11 06:45:27;;;;;;;19.20;12.37;;;;;;;-3.96;100.00;95428.34;5043279;28;20541;-76
2022/12/11 06:47:54;;;;;;;17.20;13.50;;;;;;;-3.95;100.00;95440.19;5032521;28;20448;-76
2022/12/11 06:50:21;;;;;;;18.07;13.57;;;;;;;-3.95;100.00;95453.09;5032408;28;20532;-76
2022/12/11 06:52:47;;;;;;;21.97;14.50;;;;;;;-4.21;100.00;95416.16;5032432;28;20861;-76
2022/12/11 06:55:14;;;;;;;25.13;16.00;;;;;;;-3.97;100.00;95426.78;5025272;28;20433;-76
2022/12/11 06:57:41;;;;;;;19.47;15.33;;;;;;;-4.09;100.00;95411.53;5052353;28;20424;-76
2022/12/11 07:00:08;;;;;;;21.40;14.10;;;;;;;-3.86;100.00;95451.59;5052549;28;20539;-76
2022/12/11 07:02:35;;;;;;;21.73;14.30;;;;;;;-3.90;100.00;95443.56;5053385;28;20505;-76
2022/12/11 07:05:02;;;;;;;19.87;13.60;;;;;;;-3.96;100.00;95407.69;5052115;28;20940;-76
2022/12/11 07:07:29;;;;;;;17.07;12.77;;;;;;;-3.87;100.00;95435.31;5036946;28;20488;-76
2022/12/11 07:09:55;;;;;;;18.87;13.93;;;;;;;-4.07;100.00;95408.69;5032147;28;20530;-76
2022/12/11 07:12:22;;;;;;;16.60;12.70;;;;;;;-4.10;100.00;95407.41;5031349;28;20864;-76
2022/12/11 07:14:49;;;;;;;21.80;13.67;;;;;;;-4.07;100.00;95432.69;5052119;28;20859;-76
2022/12/11 07:17:15;;;;;;;23.10;13.97;;;;;;;-4.07;100.00;95412.03;5051829;28;21014;-76
2022/12/11 07:19:42;;;;;;;15.63;11.80;;;;;;;-4.08;100.00;95422.63;5053562;28;21011;-76
2022/12/11 07:22:09;;;;;;;14.77;11.40;;;;;;;-3.70;100.00;95445.41;5047910;28;20457;-76
2022/12/11 07:24:35;;;;;;;18.17;12.50;;;;;;;-4.16;100.00;95403.25;5032778;28;20458;-77
2022/12/11 07:27:03;;;;;;;18.50;14.00;;;;;;;-3.83;100.00;95438.16;5033176;28;20456;-76
2022/12/11 07:29:30;;;;;;;15.33;12.13;;;;;;;-3.85;100.00;95435.06;5031943;28;20445;-76
2022/12/11 07:31:56;;;;;;;20.00;14.53;;;;;;;-3.91;100.00;95443.81;5032038;28;20462;-78
2022/12/11 07:34:23;;;;;;;21.10;16.13;;;;;;;-3.81;100.00;95430.91;5034010;28;20500;-76
2022/12/11 07:36:50;;;;;;;16.57;12.70;;;;;;;-3.99;100.00;95408.19;5032869;28;20954;-77
2022/12/11 07:39:17;;;;;;;19.37;13.53;;;;;;;-4.08;100.00;95412.31;5016364;28;20438;-77
2022/12/11 07:41:45;;;;;;;13.43;10.10;;;;;;;-3.93;100.00;95432.97;5017098;28;20486;-76
2022/12/11 07:44:14;;;;;;;16.60;11.67;;;;;;;-4.35;100.00;95378.97;5041473;28;20437;-76
2022/12/11 07:46:41;;;;;;;18.17;12.50;;;;;;;-3.89;100.00;95449.50;5013546;28;20446;-76
2022/12/11 07:49:07;;;;;;;30.27;20.10;;;;;;;-4.09;100.00;95418.50;5004824;28;20444;-76
2022/12/11 07:51:36;;;;;;;13.97;10.80;;;;;;;-3.87;100.00;95450.03;5031834;28;20498;-76
2022/12/11 07:54:11;;;;;;;18.90;11.10;;;;;;;-4.08;100.00;95412.31;5031376;28;20552;-76
2022/12/11 07:56:38;;;;;;;18.70;12.97;;;;;;;-3.84;100.00;95443.56;5019043;28;20433;-76
2022/12/11 07:59:10;;;;;;;16.67;10.53;;;;;;;-3.94;100.00;95434.78;5031340;28;20445;-76
2022/12/11 08:01:38;;;;;;;14.70;11.40;;;;;;;-3.77;100.00;95446.66;5034526;28;20472;-78
2022/12/11 08:04:07;;;;;;;24.73;18.50;;;;;;;-3.92;100.00;95431.94;5031565;28;21016;-76
2022/12/11 08:06:36;;;;;;;19.07;13.70;;;;;;;-3.68;100.00;95451.06;5031269;28;20435;-77
2022/12/11 08:09:06;;;;;;;16.40;12.70;;;;;;;-3.90;100.00;95414.38;5031005;28;20472;-75
2022/12/11 08:11:34;;;;;;;21.00;14.30;;;;;;;-3.64;100.00;95462.44;5014592;28;20460;-76
2022/12/11 08:14:05;;;;;;;19.03;12.20;;;;;;;-3.66;100.00;95461.91;5031054;28;20870;-76
2022/12/11 08:16:32;;;;;;;23.67;17.90;;;;;;;-3.66;100.00;95454.16;5040286;28;20453;-76
2022/12/11 08:18:59;;;;;;;17.70;12.23;;;;;;;-3.79;100.00;95426.28;5048328;28;20428;-76
2022/12/11 08:21:27;;;;;;;19.07;14.50;;;;;;;-3.51;100.00;95439.72;5030696;28;20828;-76
2022/12/11 08:23:55;;;;;;;17.63;14.27;;;;;;;-3.33;100.00;95424.47;5030187;28;20455;-76
2022/12/11 08:26:27;;;;;;;20.60;14.27;;;;;;;-2.98;100.00;95443.53;5030839;28;20426;-75
2022/12/11 08:28:54;;;;;;;25.07;18.03;;;;;;;-3.18;100.00;95466.84;5032239;28;20421;-75
2022/12/11 08:31:21;;;;;;;20.80;15.30;;;;;;;-3.21;100.00;95462.16;5032249;28;20453;-76
2022/12/11 08:33:49;;;;;;;45.37;28.70;;;;;;;-3.15;100.00;95459.31;5030501;28;20469;-72
2022/12/11 08:36:19;;;;;;;20.30;13.83;;;;;;;-3.34;100.00;95461.69;5014233;28;20956;-73
2022/12/11 08:38:46;;;;;;;19.30;14.60;;;;;;;-3.47;100.00;95438.16;5014572;28;20442;-73
2022/12/11 08:41:16;;;;;;;16.40;12.67;;;;;;;-3.59;100.00;95446.94;5032763;28;20531;-73
2022/12/11 08:43:43;;;;;;;16.63;12.60;;;;;;;-3.47;100.00;95436.38;5030856;28;20469;-73
2022/12/11 08:46:11;;;;;;;20.33;13.27;;;;;;;-3.33;100.00;95460.66;5037053;28;20438;-74
2022/12/11 08:48:39;;;;;;;15.37;10.23;;;;;;;-3.43;100.00;95460.63;5050348;28;20434;-74
2022/12/11 08:51:10;;;;;;;18.00;13.47;;;;;;;-3.46;100.00;95458.59;5035525;28;20499;-74
2022/12/11 08:53:38;;;;;;;12.53;9.10;;;;;;;-3.29;100.00;95476.41;5030395;28;20454;-74
2022/12/11 08:56:11;;;;;;;10.47;8.33;;;;;;;-3.46;100.00;95468.91;5030681;28;20880;-73
2022/12/11 08:58:37;;;;;;;13.87;6.83;;;;;;;-3.42;100.00;95480.28;5033638;28;20457;-73
2022/12/11 09:01:07;;;;;;;12.57;9.87;;;;;;;-3.50;100.00;95475.59;5033723;28;20545;-74
2022/12/11 09:03:35;;;;;;;13.53;9.37;;;;;;;-3.25;100.00;95489.56;5030188;28;20965;-74
2022/12/11 09:06:12;;;;;;;9.00;7.13;;;;;;;-3.66;100.00;95456.75;5048400;28;20436;-74
2022/12/11 09:08:40;;;;;;;9.70;7.10;;;;;;;-3.83;100.00;95455.44;5036800;28;20437;-73
2022/12/11 09:11:15;;;;;;;12.97;8.10;;;;;;;-3.77;100.00;95454.41;5026916;28;20483;-73
2022/12/11 09:13:42;;;;;;;10.70;7.20;;;;;;;-3.54;100.00;95491.88;5022991;28;20454;-73
2022/12/11 09:16:15;;;;;;;10.70;8.53;;;;;;;-3.60;100.00;95494.47;5013547;28;20536;-73
2022/12/11 09:18:45;;;;;;;11.63;9.87;;;;;;;-3.52;100.00;95492.41;5013321;28;20450;-74
2022/12/11 09:21:14;;;;;;;9.10;7.97;;;;;;;-3.49;100.00;95482.31;5013485;28;20905;-74
2022/12/11 09:23:40;;;;;;;9.77;7.63;;;;;;;-3.72;100.00;95460.38;5029140;28;20565;-74
2022/12/11 09:26:12;;;;;;;13.80;9.40;;;;;;;-3.54;100.00;95487.50;5021638;28;20469;-73
2022/12/11 09:28:40;;;;;;;13.07;9.60;;;;;;;-4.12;100.00;95396.56;5034943;28;20441;-76
2022/12/11 09:31:25;;;;;;;11.83;9.77;;;;;;;-3.34;100.00;95482.34;5034676;28;20518;-77
2022/12/11 09:33:55;;;;;;;12.70;8.50;;;;;;;-3.34;100.00;95487.53;5051169;28;20456;-76
2022/12/11 09:36:22;;;;;;;10.37;7.20;;;;;;;-3.65;100.00;95466.03;5028858;28;20485;-77
2022/12/11 09:38:49;;;;;;;11.33;7.90;;;;;;;-3.42;100.00;95488.03;5014163;28;20441;-75
2022/12/11 09:41:16;;;;;;;16.40;10.97;;;;;;;-3.28;100.00;95485.69;5031320;28;20473;-75
2022/12/11 09:44:09;;;;;;;11.53;8.83;;;;;;;-3.42;100.00;95436.34;5033639;28;20440;-77
2022/12/11 09:46:38;;;;;;;10.43;7.43;;;;;;;-3.28;100.00;95468.38;5034020;28;20452;-73
2022/12/11 09:49:21;;;;;;;12.77;9.87;;;;;;;-3.09;100.00;95471.19;5033246;28;20934;-77
2022/12/11 09:51:57;;;;;;;9.20;8.03;;;;;;;-2.93;100.00;95479.72;5019467;28;20541;-76
2022/12/11 09:54:24;;;;;;;9.17;8.13;;;;;;;-3.06;100.00;95462.16;5031288;28;20468;-77
2022/12/11 09:57:02;;;;;;;10.53;7.60;;;;;;;-3.27;100.00;95420.06;5011344;28;20431;-77
2022/12/11 09:59:34;;;;;;;11.23;7.53;;;;;;;-2.87;100.00;95467.56;5027437;28;20430;-76
2022/12/11 10:02:17;;;;;;;11.10;9.03;;;;;;;-2.86;100.00;95474.28;5033335;28;20464;-76
2022/12/11 10:04:46;;;;;;;11.17;8.57;;;;;;;-2.82;100.00;95470.13;5051237;28;20436;-78
2022/12/11 10:07:47;;;;;;;10.83;7.80;;;;;;;-2.80;100.00;95466.25;5052034;28;20471;-76
2022/12/11 10:10:37;;;;;;;12.00;8.00;;;;;;;-3.04;100.00;95429.06;5051584;28;20440;-78
2022/12/11 10:13:34;;;;;;;12.43;8.10;;;;;;;-2.76;100.00;95441.41;5034263;28;20445;-76
2022/12/11 10:16:36;;;;;;;12.07;8.30;;;;;;;-2.76;100.00;95456.91;5051648;28;20449;-77
2022/12/11 10:19:03;;;;;;;10.60;8.87;;;;;;;-3.00;100.00;95402.44;5051824;28;20432;-77
2022/12/11 10:21:38;;;;;;;9.27;7.33;;;;;;;-2.59;100.00;95448.84;5053044;28;20473;-77
2022/12/11 10:24:15;;;;;;;8.50;7.03;;;;;;;-2.47;100.00;95438.97;5050531;28;20538;-77
2022/12/11 10:27:13;;;;;;;10.93;8.63;;;;;;;-2.45;100.00;95439.47;5037661;28;20499;-76
2022/12/11 10:29:40;;;;;;;12.30;8.50;;;;;;;-2.48;100.00;95434.06;5035534;28;20929;-76
2022/12/11 10:32:21;;;;;;;10.30;7.90;;;;;;;-2.19;100.00;95434.94;5033363;28;20537;-77
2022/12/11 10:34:58;;;;;;;8.97;8.03;;;;;;;-2.45;100.00;95413.59;5018152;28;20478;-76
2022/12/11 10:37:25;;;;;;;10.90;7.70;;;;;;;-2.17;100.00;95438.03;5004874;28;20437;-76
2022/12/11 10:39:55;;;;;;;8.10;5.90;;;;;;;-2.42;100.00;95402.72;5032113;28;20487;-76
2022/12/11 10:42:22;;;;;;;7.67;6.93;;;;;;;-2.36;100.00;95405.28;5030645;28;20544;-78
2022/12/11 10:45:01;;;;;;;10.53;7.13;;;;;;;-2.07;100.00;95432.03;5043235;28;20529;-77
2022/12/11 10:47:28;;;;;;;8.87;6.47;;;;;;;-1.96;100.00;95438.72;5035447;28;20446;-77
2022/12/11 10:49:58;;;;;;;8.07;6.67;;;;;;;-2.08;100.00;95389.84;5034738;28;20522;-77
2022/12/11 10:52:30;;;;;;;6.90;6.20;;;;;;;-2.42;100.00;95404.53;5036388;28;20522;-75
2022/12/11 10:55:04;;;;;;;10.47;6.90;;;;;;;-2.03;100.00;95422.69;5020263;28;20484;-76
2022/12/11 10:57:34;;;;;;;9.23;6.47;;;;;;;-2.42;100.00;95402.72;5038351;28;20449;-77
2022/12/11 11:00:06;;;;;;;7.53;4.93;;;;;;;-2.52;100.00;95420.91;5029398;28;20937;-77
2022/12/11 11:02:35;;;;;;;8.67;6.03;;;;;;;-2.40;100.00;95399.88;5033843;28;20970;-77
2022/12/11 11:05:33;;;;;;;7.80;7.00;;;;;;;-2.46;100.00;95419.03;5018690;28;20456;-77
2022/12/11 11:08:09;;;;;;;8.57;6.83;;;;;;;-2.68;100.00;95421.97;5033687;28;20453;-76
2022/12/11 11:10:36;;;;;;;8.47;6.60;;;;;;;-2.84;100.00;95395.38;5034007;28;20462;-77
2022/12/11 11:13:03;;;;;;;9.33;8.30;;;;;;;-2.95;100.00;95375.78;5034696;28;20442;-77
2022/12/11 11:15:30;;;;;;;9.70;7.30;;;;;;;-2.74;100.00;95374.66;5033525;28;20563;-77
2022/12/11 11:18:08;;;;;;;9.90;7.23;;;;;;;-3.07;100.00;95344.28;5032559;28;20442;-75
2022/12/11 11:20:35;;;;;;;6.77;6.13;;;;;;;-3.21;100.00;95361.38;5032183;28;20461;-76
2022/12/11 11:23:13;;;;;;;8.10;6.67;;;;;;;-2.99;100.00;95377.34;5032615;28;20425;-77
2022/12/11 11:25:49;;;;;;;11.93;8.17;;;;;;;-3.00;100.00;95355.88;5039262;28;21101;-77
2022/12/11 11:28:35;;;;;;;10.77;8.30;;;;;;;-2.95;100.00;95356.91;5052214;28;20439;-75
2022/12/11 11:31:04;;;;;;;11.40;8.00;;;;;;;-2.94;100.00;95351.47;5052390;28;20813;-76
2022/12/11 11:33:34;;;;;;;9.40;7.57;;;;;;;-2.69;100.00;95369.47;5052040;28;20436;-77
2022/12/11 11:36:06;;;;;;;9.67;6.90;;;;;;;-2.77;100.00;95364.09;5035862;28;20924;-76
2022/12/11 11:38:42;;;;;;;8.93;6.50;;;;;;;-2.70;100.00;95375.69;5031008;28;20501;-76